Time;durP1;ratioP1;P1;durP2;ratioP2;P2;SDS_P1;SDS_P2;PMS_P1;PMS_P2;Temp;Humidity;BMP_temperature;BMP_pressure;BME280_temperature;BME280_humidity;BME280_pressure;Samples;Min_cycle;Max_cycle;Signal;HPM_P1;HPM_P2
2022/03/10 04:01:57;;;;;;;1.77;1.67;;;4.90;55.50;;;;;;5397919;23;20541;-74
2022/03/10 04:04:23;;;;;;;1.77;1.67;;;4.90;55.30;;;;;;4994046;28;20520;-74
2022/03/10 04:06:50;;;;;;;1.80;1.70;;;4.90;55.40;;;;;;4993731;28;20500;-74
2022/03/10 04:09:17;;;;;;;2.00;1.90;;;5.00;54.90;;;;;;4993893;28;20504;-74
2022/03/10 04:11:44;;;;;;;1.80;1.70;;;4.90;54.80;;;;;;4982903;28;20470;-74
2022/03/10 04:14:11;;;;;;;1.50;1.40;;;4.90;55.10;;;;;;4974410;28;20450;-74
2022/03/10 04:16:38;;;;;;;1.90;1.80;;;4.90;55.60;;;;;;4975814;28;20464;-74
2022/03/10 04:19:06;;;;;;;1.70;1.60;;;4.90;55.50;;;;;;4974332;28;20485;-74
2022/03/10 04:21:33;;;;;;;1.80;1.70;;;4.90;55.40;;;;;;4974043;28;21048;-74
2022/03/10 04:24:00;;;;;;;1.80;1.70;;;4.90;54.90;;;;;;4974330;28;20454;-74
2022/03/10 04:26:27;;;;;;;1.60;1.50;;;4.90;55.10;;;;;;4974323;28;20453;-74
2022/03/10 04:28:53;;;;;;;1.53;1.43;;;4.90;55.20;;;;;;4974346;28;20457;-74
2022/03/10 04:31:20;;;;;;;1.90;1.80;;;4.90;55.20;;;;;;4974235;28;20520;-74
2022/03/10 04:33:47;;;;;;;1.77;1.67;;;4.90;55.20;;;;;;4974294;28;20450;-74
2022/03/10 04:36:15;;;;;;;1.67;1.57;;;4.90;55.30;;;;;;4974225;28;20509;-74
2022/03/10 04:38:41;;;;;;;1.87;1.77;;;4.90;55.40;;;;;;4974818;28;20544;-74
2022/03/10 04:41:08;;;;;;;1.70;1.53;;;4.80;55.40;;;;;;4974165;28;20470;-74
2022/03/10 04:43:35;;;;;;;1.77;1.67;;;4.80;55.20;;;;;;4974182;28;20501;-74
2022/03/10 04:46:03;;;;;;;1.90;1.80;;;4.80;55.10;;;;;;4974149;28;20450;-74
2022/03/10 04:48:30;;;;;;;2.63;1.80;;;4.80;55.30;;;;;;4975462;28;20454;-74
2022/03/10 04:50:57;;;;;;;1.80;1.70;;;4.80;55.20;;;;;;4977931;28;20469;-74
2022/03/10 04:53:25;;;;;;;2.00;1.90;;;4.90;55.00;;;;;;4977935;28;20500;-74
2022/03/10 04:55:51;;;;;;;2.13;2.03;;;4.90;54.80;;;;;;4977923;28;20504;-74
2022/03/10 04:58:18;;;;;;;1.87;1.77;;;4.90;54.90;;;;;;4977745;28;20477;-74
2022/03/10 05:00:45;;;;;;;2.00;1.90;;;4.90;55.20;;;;;;4977483;28;20477;-74
2022/03/10 05:03:13;;;;;;;1.63;1.53;;;4.90;55.20;;;;;;4977801;28;20501;-74
2022/03/10 05:05:39;;;;;;;1.80;1.70;;;4.90;55.00;;;;;;4977469;28;20552;-74
2022/03/10 05:08:06;;;;;;;1.93;1.83;;;4.90;55.00;;;;;;4977404;28;20812;-74
2022/03/10 05:10:34;;;;;;;2.23;2.13;;;4.90;54.90;;;;;;4977616;28;20516;-74
2022/03/10 05:13:01;;;;;;;1.90;1.80;;;4.90;54.80;;;;;;4977191;28;20544;-74
2022/03/10 05:15:31;;;;;;;1.63;1.53;;;4.80;54.70;;;;;;4977349;28;20454;-74
2022/03/10 05:17:58;;;;;;;2.23;2.13;;;4.80;54.90;;;;;;4976941;28;20482;-74
2022/03/10 05:20:25;;;;;;;1.93;1.83;;;4.70;54.80;;;;;;4977272;28;20504;-73
2022/03/10 05:22:53;;;;;;;2.00;1.90;;;4.70;55.40;;;;;;4977245;28;20449;-74
2022/03/10 05:25:21;;;;;;;1.70;1.60;;;4.60;55.40;;;;;;4977173;28;20450;-74
2022/03/10 05:27:50;;;;;;;2.30;2.20;;;4.60;55.40;;;;;;4977045;28;20446;-73
2022/03/10 05:30:18;;;;;;;1.70;1.60;;;4.50;55.40;;;;;;4977065;28;20461;-74
2022/03/10 05:32:45;;;;;;;2.47;2.37;;;4.50;55.90;;;;;;4976799;28;20525;-73
2022/03/10 05:35:15;;;;;;;2.07;1.97;;;4.50;56.10;;;;;;4977061;28;20509;-73
2022/03/10 05:37:43;;;;;;;1.60;1.50;;;4.40;55.90;;;;;;4976935;28;20452;-72
2022/03/10 05:40:11;;;;;;;1.83;1.73;;;4.40;56.20;;;;;;4977087;28;20469;-72
2022/03/10 05:42:39;;;;;;;3.43;1.90;;;4.40;56.50;;;;;;4976665;28;21026;-76
2022/03/10 05:45:08;;;;;;;2.03;1.93;;;4.40;56.40;;;;;;4977156;28;20504;-73
2022/03/10 05:47:35;;;;;;;1.70;1.60;;;4.40;56.40;;;;;;4976665;28;20501;-72
2022/03/10 05:50:02;;;;;;;2.03;1.93;;;4.40;56.40;;;;;;4977094;28;20456;-73
2022/03/10 05:52:29;;;;;;;1.80;1.70;;;4.50;56.50;;;;;;4976733;28;20470;-72
2022/03/10 05:54:56;;;;;;;2.20;2.10;;;4.50;56.30;;;;;;4976962;28;20450;-73
2022/03/10 05:57:23;;;;;;;1.70;1.60;;;4.50;56.10;;;;;;4976505;28;21004;-72
2022/03/10 05:59:49;;;;;;;1.77;1.67;;;4.50;56.20;;;;;;4975705;28;20542;-72
2022/03/10 06:02:17;;;;;;;1.60;1.50;;;4.70;56.20;;;;;;4976748;28;20482;-72
2022/03/10 06:04:44;;;;;;;1.90;1.80;;;5.00;55.90;;;;;;4976617;28;20445;-72
2022/03/10 06:07:11;;;;;;;1.70;1.60;;;5.40;54.70;;;;;;4976270;28;20446;-72
2022/03/10 06:09:38;;;;;;;1.83;1.73;;;5.70;53.40;;;;;;4976659;28;20866;-73
2022/03/10 06:12:06;;;;;;;1.70;1.60;;;6.00;53.20;;;;;;4976333;28;20470;-72
2022/03/10 06:14:33;;;;;;;2.40;2.30;;;6.10;52.70;;;;;;4976526;28;20553;-72
2022/03/10 06:17:00;;;;;;;1.90;1.80;;;6.30;52.20;;;;;;4976015;28;20454;-72
2022/03/10 06:19:28;;;;;;;1.60;1.50;;;6.50;51.80;;;;;;4976359;28;20496;-72
2022/03/10 06:21:54;;;;;;;1.97;1.87;;;7.00;51.20;;;;;;4976244;28;20473;-72
2022/03/10 06:24:21;;;;;;;1.50;1.40;;;7.40;50.50;;;;;;4976163;28;20458;-73
2022/03/10 06:26:48;;;;;;;1.70;1.60;;;7.60;50.00;;;;;;4976178;28;20446;-73
2022/03/10 06:29:14;;;;;;;1.60;1.50;;;8.10;49.40;;;;;;4975898;28;20458;-73
2022/03/10 06:31:41;;;;;;;1.70;1.60;;;9.00;48.00;;;;;;4976040;28;20473;-73
2022/03/10 06:34:08;;;;;;;1.70;1.60;;;10.50;45.40;;;;;;4976575;28;20458;-73
2022/03/10 06:36:36;;;;;;;1.60;1.50;;;12.10;43.20;;;;;;4975941;28;20461;-73
2022/03/10 06:39:02;;;;;;;1.77;1.67;;;13.60;40.80;;;;;;4975868;28;20478;-73
2022/03/10 06:41:29;;;;;;;1.70;1.60;;;15.10;38.10;;;;;;4976063;28;20466;-73
2022/03/10 06:43:56;;;;;;;1.70;1.60;;;16.60;36.20;;;;;;4976154;28;20480;-73
2022/03/10 06:46:24;;;;;;;2.00;1.80;;;17.90;34.50;;;;;;4975555;28;20857;-73
2022/03/10 06:48:50;;;;;;;1.53;1.43;;;19.10;32.90;;;;;;4976136;28;20450;-73
2022/03/10 06:51:17;;;;;;;2.30;2.10;;;20.10;31.60;;;;;;4975744;28;20478;-73
2022/03/10 06:53:45;;;;;;;2.10;2.00;;;21.20;30.50;;;;;;4976183;28;20458;-74
2022/03/10 06:56:12;;;;;;;1.90;1.80;;;22.20;30.10;;;;;;4976106;28;20968;-73
2022/03/10 06:58:40;;;;;;;1.90;1.80;;;23.10;28.50;;;;;;4975491;28;20921;-73
2022/03/10 07:01:06;;;;;;;2.00;1.90;;;24.00;28.00;;;;;;4975480;28;20497;-74
2022/03/10 07:03:33;;;;;;;1.90;1.80;;;24.80;27.20;;;;;;4975233;28;20442;-74
2022/03/10 07:06:00;;;;;;;2.13;1.93;;;25.60;26.10;;;;;;4976289;28;20458;-74
2022/03/10 07:08:26;;;;;;;1.83;1.73;;;26.30;25.80;;;;;;4975627;28;20454;-74
2022/03/10 07:10:54;;;;;;;1.60;1.50;;;27.00;25.00;;;;;;4975407;28;20544;-74
2022/03/10 07:13:21;;;;;;;1.80;1.70;;;27.70;24.50;;;;;;4975746;28;20445;-74
2022/03/10 07:15:48;;;;;;;1.50;1.40;;;28.20;24.10;;;;;;4976690;28;20509;-74
2022/03/10 07:18:15;;;;;;;1.43;1.33;;;28.80;23.00;;;;;;4975998;28;20504;-74
2022/03/10 07:20:41;;;;;;;1.57;1.47;;;29.40;22.20;;;;;;4975841;28;20868;-74
2022/03/10 07:23:08;;;;;;;1.60;1.50;;;29.90;21.40;;;;;;4975943;28;20449;-74
2022/03/10 07:25:35;;;;;;;1.60;1.50;;;30.30;20.90;;;;;;4976028;28;20975;-74
2022/03/10 07:28:04;;;;;;;1.53;1.43;;;30.40;20.80;;;;;;4975994;28;20469;-74
2022/03/10 07:30:31;;;;;;;1.70;1.60;;;30.80;20.70;;;;;;4976200;28;20470;-74
2022/03/10 07:32:57;;;;;;;1.37;1.27;;;31.10;20.80;;;;;;4975711;28;20501;-74
2022/03/10 07:35:24;;;;;;;1.20;1.10;;;31.50;20.60;;;;;;4975813;28;20830;-74
2022/03/10 07:37:53;;;;;;;1.43;1.33;;;31.70;19.50;;;;;;4976024;28;20450;-74
2022/03/10 07:40:21;;;;;;;1.20;1.10;;;32.00;20.10;;;;;;4975757;28;20486;-74
2022/03/10 07:42:48;;;;;;;1.30;1.20;;;32.40;19.40;;;;;;4976169;28;20505;-74
2022/03/10 07:45:16;;;;;;;1.27;1.17;;;32.70;19.30;;;;;;4976305;28;20449;-74
2022/03/10 07:47:42;;;;;;;1.17;1.07;;;32.50;19.90;;;;;;4976108;28;20504;-74
2022/03/10 07:50:10;;;;;;;1.73;1.40;;;31.90;19.60;;;;;;4975789;28;20497;-74
2022/03/10 07:52:36;;;;;;;1.37;1.27;;;30.80;20.40;;;;;;4975838;28;20470;-74
2022/03/10 07:55:04;;;;;;;1.67;1.57;;;29.80;20.80;;;;;;4975494;28;20575;-74
2022/03/10 07:57:30;;;;;;;1.60;1.50;;;28.00;22.70;;;;;;4977100;28;20457;-74
2022/03/10 07:59:57;;;;;;;1.37;1.27;;;26.90;23.20;;;;;;4975076;28;20481;-74
2022/03/10 08:02:25;;;;;;;1.30;1.20;;;25.40;23.50;;;;;;4974487;28;20525;-74
2022/03/10 08:04:52;;;;;;;1.50;1.40;;;24.40;24.80;;;;;;4974827;28;20449;-74
2022/03/10 08:07:18;;;;;;;1.40;1.30;;;23.40;25.30;;;;;;4974807;28;20453;-73
2022/03/10 08:09:45;;;;;;;1.40;1.30;;;22.30;25.60;;;;;;4974684;28;20442;-74
2022/03/10 08:12:12;;;;;;;1.30;1.20;;;21.00;27.00;;;;;;4974233;28;20894;-74
2022/03/10 08:14:38;;;;;;;1.50;1.40;;;20.00;28.10;;;;;;4974403;28;20504;-74
2022/03/10 08:17:05;;;;;;;1.40;1.30;;;19.20;29.90;;;;;;4974701;28;20454;-74
2022/03/10 08:19:33;;;;;;;1.43;1.33;;;18.40;31.20;;;;;;4974633;28;20485;-73
2022/03/10 08:22:00;;;;;;;1.50;1.40;;;18.10;31.60;;;;;;4974600;28;20473;-73
2022/03/10 08:24:28;;;;;;;1.50;1.40;;;17.60;32.30;;;;;;4980345;28;20540;-73
2022/03/10 08:26:56;;;;;;;1.23;1.13;;;16.90;32.80;;;;;;4981222;28;20473;-73
2022/03/10 08:29:23;;;;;;;1.30;1.20;;;16.20;34.00;;;;;;4980830;28;20988;-73
2022/03/10 08:31:49;;;;;;;1.53;1.30;;;15.50;34.60;;;;;;4980989;28;20509;-73
2022/03/10 08:34:17;;;;;;;1.40;1.30;;;15.20;35.80;;;;;;4980990;28;20449;-73
2022/03/10 08:36:45;;;;;;;1.50;1.40;;;14.80;36.30;;;;;;4980899;28;20464;-73
2022/03/10 08:39:13;;;;;;;1.77;1.60;;;14.20;37.10;;;;;;4981004;28;20540;-73
2022/03/10 08:41:39;;;;;;;1.50;1.40;;;13.70;39.00;;;;;;4980692;28;20985;-73
2022/03/10 08:44:06;;;;;;;1.40;1.30;;;13.40;39.70;;;;;;4981036;28;20868;-73
2022/03/10 08:46:33;;;;;;;1.43;1.33;;;13.20;40.30;;;;;;4980529;28;20947;-73
2022/03/10 08:49:00;;;;;;;1.50;1.40;;;12.90;40.10;;;;;;4980788;28;20441;-73
2022/03/10 08:51:27;;;;;;;1.50;1.40;;;12.40;40.20;;;;;;4980756;28;20481;-72
2022/03/10 08:53:55;;;;;;;1.37;1.27;;;12.10;40.90;;;;;;4980885;28;20476;-73
2022/03/10 08:56:21;;;;;;;1.60;1.50;;;11.60;41.80;;;;;;4980797;28;20505;-72
2022/03/10 08:58:48;;;;;;;1.60;1.50;;;11.40;42.30;;;;;;4980782;28;20528;-73
2022/03/10 09:01:15;;;;;;;1.60;1.50;;;11.20;43.30;;;;;;4980435;28;20488;-73
2022/03/10 09:03:41;;;;;;;1.20;1.10;;;11.10;43.80;;;;;;4980796;28;20442;-73
2022/03/10 09:06:10;;;;;;;1.50;1.40;;;11.10;43.20;;;;;;4980459;28;20446;-73
2022/03/10 09:08:37;;;;;;;1.63;1.53;;;10.90;43.90;;;;;;4980722;28;20457;-73
2022/03/10 09:11:06;;;;;;;1.37;1.27;;;10.80;43.60;;;;;;4980719;28;20478;-73
2022/03/10 09:13:33;;;;;;;1.57;1.47;;;10.80;45.10;;;;;;4980497;28;21020;-73
2022/03/10 09:16:00;;;;;;;1.60;1.50;;;10.60;44.40;;;;;;4980704;28;20457;-74
2022/03/10 09:18:26;;;;;;;1.87;1.67;;;10.50;44.90;;;;;;4980249;28;20942;-73
2022/03/10 09:20:53;;;;;;;1.40;1.30;;;10.60;45.30;;;;;;4980157;28;20489;-73
2022/03/10 09:23:20;;;;;;;1.50;1.40;;;10.60;44.80;;;;;;4980132;28;20945;-74
2022/03/10 09:25:47;;;;;;;1.60;1.50;;;10.60;45.10;;;;;;4980577;28;20512;-73
2022/03/10 09:28:15;;;;;;;1.77;1.67;;;10.60;45.70;;;;;;4980590;28;20508;-74
2022/03/10 09:30:42;;;;;;;1.53;1.43;;;10.60;45.30;;;;;;4980581;28;20446;-73
2022/03/10 09:33:08;;;;;;;1.50;1.40;;;10.70;45.90;;;;;;4980799;28;20501;-74
2022/03/10 09:35:35;;;;;;;1.53;1.43;;;10.80;45.70;;;;;;4978331;28;20537;-74
2022/03/10 09:38:02;;;;;;;1.50;1.40;;;10.90;45.70;;;;;;4978468;28;20453;-74
2022/03/10 09:40:28;;;;;;;1.60;1.50;;;11.00;46.00;;;;;;4977173;28;20477;-73
2022/03/10 09:42:56;;;;;;;1.43;1.33;;;11.10;45.50;;;;;;4977804;28;20446;-74
2022/03/10 09:45:25;;;;;;;1.43;1.33;;;11.00;44.30;;;;;;4977112;28;20936;-74
2022/03/10 09:47:52;;;;;;;1.63;1.53;;;11.10;45.40;;;;;;4977242;28;20508;-73
2022/03/10 09:50:19;;;;;;;1.70;1.60;;;11.10;46.10;;;;;;4977122;28;20516;-74
2022/03/10 09:52:47;;;;;;;1.47;1.37;;;11.30;45.40;;;;;;4977261;28;20485;-73
2022/03/10 09:55:17;;;;;;;1.77;1.47;;;11.20;45.00;;;;;;4977155;28;20458;-73
2022/03/10 09:57:46;;;;;;;1.50;1.40;;;11.10;45.10;;;;;;4977168;28;20464;-73
2022/03/10 10:00:15;;;;;;;1.90;1.80;;;11.20;45.20;;;;;;4977127;28;20497;-74
2022/03/10 10:02:44;;;;;;;1.40;1.30;;;11.40;45.90;;;;;;4977151;28;20573;-73
2022/03/10 10:05:24;;;;;;;1.50;1.40;;;11.50;44.70;;;;;;4977221;28;20454;-73
2022/03/10 10:08:06;;;;;;;1.10;1.00;;;11.50;44.70;;;;;;4977013;28;20461;-73
2022/03/10 10:10:35;;;;;;;1.40;1.30;;;11.60;44.90;;;;;;4977446;28;20473;-73
2022/03/10 10:13:06;;;;;;;2.20;1.50;;;11.70;44.60;;;;;;4977363;28;20465;-73
2022/03/10 10:15:37;;;;;;;1.20;1.10;;;11.80;44.20;;;;;;5097963;23;20487;-73
2022/03/10 10:18:06;;;;;;;1.00;0.90;;;11.70;43.60;;;;;;4977039;28;20437;-74
2022/03/10 10:20:44;;;;;;;1.10;1.00;;;11.70;44.20;;;;;;4976961;28;20485;-74
2022/03/10 10:23:23;;;;;;;1.30;1.20;;;11.80;44.50;;;;;;4978048;28;20449;-73
2022/03/10 10:25:55;;;;;;;1.47;1.37;;;11.90;43.30;;;;;;4972482;28;20490;-74
2022/03/10 10:28:27;;;;;;;1.87;1.13;;;12.00;43.30;;;;;;4957467;29;20443;-71
2022/03/10 10:31:00;;;;;;;1.20;1.10;;;12.00;43.90;;;;;;4957407;29;20868;-71
2022/03/10 10:33:29;;;;;;;1.60;1.10;;;12.00;43.80;;;;;;4957379;29;20435;-71
2022/03/10 10:36:16;;;;;;;1.50;1.40;;;12.20;42.80;;;;;;4957128;28;20483;-70
2022/03/10 10:38:44;;;;;;;1.10;1.00;;;12.10;42.60;;;;;;4958247;29;20490;-70
2022/03/10 10:41:23;;;;;;;1.20;1.10;;;12.20;42.80;;;;;;4956915;29;20490;-71
2022/03/10 10:43:53;;;;;;;1.47;1.10;;;12.30;42.70;;;;;;4957358;29;20439;-71
2022/03/10 10:46:25;;;;;;;1.10;1.00;;;12.40;42.40;;;;;;4956857;28;20462;-69
2022/03/10 10:48:53;;;;;;;1.07;0.97;;;12.60;42.10;;;;;;4956470;29;20961;-69
2022/03/10 10:51:31;;;;;;;1.20;1.10;;;12.60;41.70;;;;;;4956355;29;20939;-70
2022/03/10 10:53:59;;;;;;;1.10;1.00;;;12.60;42.70;;;;;;4956686;29;20435;-70
2022/03/10 10:56:26;;;;;;;1.00;0.90;;;12.80;41.60;;;;;;4956198;28;20475;-69
2022/03/10 10:58:54;;;;;;;1.00;0.90;;;12.90;41.30;;;;;;4956553;29;20458;-69
2022/03/10 11:01:28;;;;;;;1.00;0.90;;;13.00;40.70;;;;;;4956483;29;20581;-69
2022/03/10 11:03:56;;;;;;;1.07;0.97;;;13.10;40.70;;;;;;4956057;29;21014;-69
2022/03/10 11:06:24;;;;;;;1.17;1.07;;;13.10;40.70;;;;;;4956760;28;20474;-70
2022/03/10 11:08:51;;;;;;;1.00;0.90;;;13.40;40.40;;;;;;4956371;29;20463;-70
2022/03/10 11:11:19;;;;;;;1.10;0.90;;;13.50;40.50;;;;;;4956334;29;20869;-70
2022/03/10 11:13:46;;;;;;;1.00;0.90;;;13.60;39.80;;;;;;4956306;29;20453;-70
2022/03/10 11:16:14;;;;;;;1.00;0.70;;;13.70;39.90;;;;;;4955965;28;20487;-70
2022/03/10 11:18:42;;;;;;;0.90;0.80;;;13.90;39.90;;;;;;4956192;29;20502;-70
2022/03/10 11:21:23;;;;;;;1.63;0.80;;;14.00;39.50;;;;;;4956026;29;20483;-69
2022/03/10 11:24:02;;;;;;;0.90;0.80;;;13.90;38.30;;;;;;4956131;29;20565;-70
2022/03/10 11:26:35;;;;;;;1.00;0.90;;;13.80;39.30;;;;;;4956024;28;20474;-70
2022/03/10 11:29:02;;;;;;;0.90;0.80;;;13.90;39.10;;;;;;4956065;29;20795;-69
2022/03/10 11:31:32;;;;;;;1.00;0.90;;;14.10;39.30;;;;;;4956038;29;20451;-70
2022/03/10 11:33:59;;;;;;;0.90;0.80;;;14.30;38.60;;;;;;4955917;29;20806;-70
2022/03/10 11:36:30;;;;;;;1.00;0.80;;;14.50;37.60;;;;;;4955820;28;20469;-70
2022/03/10 11:38:59;;;;;;;0.90;0.70;;;14.30;38.00;;;;;;4955920;29;20569;-70
2022/03/10 11:41:27;;;;;;;1.10;0.80;;;14.40;37.40;;;;;;4955775;29;20537;-71
2022/03/10 11:43:59;;;;;;;1.00;0.90;;;14.50;37.30;;;;;;4955725;29;20451;-70
2022/03/10 11:46:27;;;;;;;0.97;0.80;;;14.30;37.10;;;;;;4955594;28;21000;-70
2022/03/10 11:49:09;;;;;;;0.90;0.77;;;14.30;36.80;;;;;;4955375;29;20862;-71
2022/03/10 11:51:46;;;;;;;1.47;0.67;;;14.20;36.30;;;;;;4955507;29;20962;-69
2022/03/10 11:54:17;;;;;;;1.20;0.70;;;14.10;36.30;;;;;;4956344;29;20431;-71
2022/03/10 11:57:01;;;;;;;0.90;0.70;;;14.20;37.20;;;;;;4956423;28;20546;-70
2022/03/10 11:59:43;;;;;;;1.00;0.73;;;14.40;37.20;;;;;;4955472;29;20485;-70
2022/03/10 12:02:47;;;;;;;0.90;0.70;;;14.70;37.10;;;;;;4955769;29;20427;-70
2022/03/10 12:05:14;;;;;;;0.87;0.70;;;15.00;36.20;;;;;;4956504;28;20545;-71
2022/03/10 12:07:44;;;;;;;0.90;0.70;;;15.10;36.30;;;;;;4956635;29;20505;-69
2022/03/10 12:10:14;;;;;;;1.00;0.90;;;15.10;35.80;;;;;;4956575;29;20453;-69
2022/03/10 12:12:42;;;;;;;0.90;0.70;;;15.60;36.20;;;;;;4956041;29;20997;-69
2022/03/10 12:15:48;;;;;;;0.90;0.70;;;15.60;35.30;;;;;;4957056;29;20450;-68
2022/03/10 12:18:18;;;;;;;0.90;0.70;;;15.80;35.30;;;;;;4955147;29;20454;-69
2022/03/10 12:20:45;;;;;;;0.90;0.80;;;16.00;35.30;;;;;;4956395;29;20494;-69
2022/03/10 12:23:15;;;;;;;0.90;0.70;;;16.20;34.10;;;;;;4956433;29;20470;-71
2022/03/10 12:25:43;;;;;;;0.90;0.70;;;16.10;34.60;;;;;;4956497;28;20466;-70
2022/03/10 12:28:12;;;;;;;0.90;0.70;;;16.40;34.10;;;;;;4956291;29;20883;-70
2022/03/10 12:30:44;;;;;;;0.80;0.63;;;16.30;34.10;;;;;;4955578;29;20450;-68
2022/03/10 12:33:11;;;;;;;0.90;0.70;;;16.40;34.30;;;;;;4957112;29;20538;-69
2022/03/10 12:35:40;;;;;;;1.20;0.70;;;16.60;33.80;;;;;;4956854;28;20481;-70
2022/03/10 12:38:08;;;;;;;1.00;0.80;;;16.30;33.50;;;;;;4959331;29;20455;-69
2022/03/10 12:40:38;;;;;;;0.87;0.73;;;16.20;34.50;;;;;;4960360;29;20497;-68
2022/03/10 12:43:07;;;;;;;0.90;0.80;;;16.30;34.30;;;;;;4956739;29;20439;-70
2022/03/10 12:45:34;;;;;;;0.90;0.70;;;16.40;33.20;;;;;;4955527;28;20994;-68
2022/03/10 12:48:05;;;;;;;0.90;0.70;;;16.40;32.90;;;;;;4955604;29;20459;-69
2022/03/10 12:50:34;;;;;;;0.90;0.70;;;16.30;33.90;;;;;;4955763;29;20436;-68
2022/03/10 12:53:10;;;;;;;0.90;0.70;;;16.60;33.70;;;;;;4955381;29;20542;-69
2022/03/10 12:55:38;;;;;;;0.90;0.60;;;16.90;32.90;;;;;;4955350;28;20486;-69
2022/03/10 12:58:05;;;;;;;0.90;0.80;;;17.10;32.50;;;;;;4955465;29;20447;-70
2022/03/10 13:00:36;;;;;;;0.90;0.70;;;17.30;33.10;;;;;;4955508;29;20493;-70
2022/03/10 13:03:02;;;;;;;0.90;0.70;;;17.50;32.90;;;;;;4955230;29;20800;-69
2022/03/10 13:05:29;;;;;;;1.00;0.80;;;17.40;32.60;;;;;;4954943;28;20447;-71
2022/03/10 13:08:05;;;;;;;0.90;0.70;;;17.10;32.00;;;;;;4954661;29;20965;-71
2022/03/10 13:10:32;;;;;;;1.10;0.80;;;16.70;32.00;;;;;;4957729;28;20465;-70
2022/03/10 13:13:00;;;;;;;0.90;0.70;;;16.70;32.60;;;;;;4958471;29;20443;-68
2022/03/10 13:15:29;;;;;;;0.90;0.70;;;16.80;32.60;;;;;;4958169;28;20482;-69
2022/03/10 13:18:02;;;;;;;1.00;0.80;;;17.10;32.40;;;;;;4958450;29;20454;-69
2022/03/10 13:20:30;;;;;;;1.10;0.80;;;17.60;32.50;;;;;;4958000;29;20905;-70
2022/03/10 13:22:59;;;;;;;1.00;0.90;;;17.50;32.00;;;;;;4958167;29;20509;-70
2022/03/10 13:25:31;;;;;;;0.90;0.70;;;17.40;31.80;;;;;;4958235;28;20454;-69
2022/03/10 13:28:03;;;;;;;0.90;0.70;;;17.30;31.60;;;;;;4958314;29;20514;-69
2022/03/10 13:30:30;;;;;;;0.97;0.73;;;17.20;31.70;;;;;;4958326;29;20427;-70
2022/03/10 13:32:59;;;;;;;0.90;0.70;;;17.30;31.80;;;;;;4958307;29;20450;-71
2022/03/10 13:35:29;;;;;;;1.10;0.80;;;17.40;31.90;;;;;;4958960;28;20450;-70
2022/03/10 13:37:56;;;;;;;1.00;0.80;;;17.60;31.80;;;;;;4958661;29;20458;-71
2022/03/10 13:40:23;;;;;;;0.90;0.70;;;17.40;31.60;;;;;;4958562;29;20927;-71
2022/03/10 13:42:52;;;;;;;1.00;0.80;;;17.20;31.50;;;;;;4959272;29;20443;-70
2022/03/10 13:45:20;;;;;;;0.90;0.73;;;17.10;31.90;;;;;;4958111;28;20443;-71
2022/03/10 13:47:52;;;;;;;0.90;0.70;;;17.30;32.10;;;;;;4958497;29;20458;-71
2022/03/10 13:50:21;;;;;;;0.90;0.70;;;17.30;32.00;;;;;;4958190;29;20443;-71
2022/03/10 13:52:52;;;;;;;1.00;0.90;;;17.50;31.60;;;;;;4958082;29;20451;-71
2022/03/10 13:55:19;;;;;;;0.90;0.80;;;18.00;30.80;;;;;;4958706;28;20530;-71
2022/03/10 13:57:46;;;;;;;0.97;0.87;;;18.20;30.90;;;;;;4957940;29;20938;-71
2022/03/10 14:00:14;;;;;;;0.90;0.80;;;18.30;30.50;;;;;;4958503;29;20444;-71
2022/03/10 14:02:51;;;;;;;1.10;1.00;;;18.40;30.30;;;;;;4958107;29;20451;-72
2022/03/10 14:05:19;;;;;;;1.10;1.00;;;18.80;29.60;;;;;;4957950;28;20442;-70
2022/03/10 14:08:12;;;;;;;1.23;1.00;;;19.30;28.70;;;;;;4957590;29;20876;-71
2022/03/10 14:10:39;;;;;;;1.20;1.10;;;19.90;28.40;;;;;;4958097;29;20441;-71
2022/03/10 14:13:06;;;;;;;1.00;0.90;;;20.60;27.60;;;;;;4957819;29;20875;-71
2022/03/10 14:15:38;;;;;;;1.00;0.80;;;21.70;27.10;;;;;;4957817;28;20467;-71
2022/03/10 14:18:10;;;;;;;0.90;0.80;;;22.90;25.70;;;;;;4957690;29;20938;-71
2022/03/10 14:20:45;;;;;;;0.90;0.77;;;23.30;24.70;;;;;;4956854;28;20574;-69
2022/03/10 14:23:16;;;;;;;1.53;0.80;;;23.80;24.50;;;;;;4958388;29;20457;-71
2022/03/10 14:25:45;;;;;;;1.10;0.80;;;24.10;24.10;;;;;;4957504;28;20481;-71
2022/03/10 14:28:13;;;;;;;1.00;0.80;;;24.90;24.10;;;;;;4957412;29;20459;-70
2022/03/10 14:30:40;;;;;;;1.13;0.90;;;25.10;23.50;;;;;;4957086;29;20447;-70
2022/03/10 14:33:09;;;;;;;0.90;0.70;;;25.70;23.00;;;;;;4957098;29;20502;-71
2022/03/10 14:35:37;;;;;;;1.13;1.03;;;26.00;23.00;;;;;;4957017;28;20471;-71
2022/03/10 14:38:04;;;;;;;0.90;0.70;;;26.10;22.30;;;;;;4957246;29;20532;-70
2022/03/10 14:40:31;;;;;;;0.90;0.70;;;25.50;22.60;;;;;;4956993;29;20962;-71
2022/03/10 14:42:58;;;;;;;1.00;0.90;;;24.90;23.10;;;;;;4956876;29;20446;-71
2022/03/10 14:45:25;;;;;;;1.07;0.90;;;24.80;23.10;;;;;;4956721;28;20973;-71
2022/03/10 14:47:52;;;;;;;0.90;0.70;;;24.90;22.70;;;;;;4957120;29;20489;-72
2022/03/10 14:50:21;;;;;;;1.50;0.90;;;25.40;22.90;;;;;;4957122;29;20466;-71
2022/03/10 14:52:47;;;;;;;1.10;0.87;;;25.90;21.80;;;;;;4957476;29;20459;-71
2022/03/10 14:55:14;;;;;;;1.00;0.87;;;26.20;21.90;;;;;;4956930;28;20455;-72
2022/03/10 14:57:41;;;;;;;1.00;0.80;;;26.10;21.70;;;;;;4956888;29;20459;-70
2022/03/10 15:00:10;;;;;;;1.00;0.80;;;26.20;22.00;;;;;;4957329;29;20470;-71
2022/03/10 15:02:36;;;;;;;1.20;0.90;;;26.30;21.80;;;;;;4956727;29;20491;-71
2022/03/10 15:05:04;;;;;;;0.90;0.70;;;26.30;21.70;;;;;;4956506;29;20450;-71
2022/03/10 15:07:32;;;;;;;1.57;0.83;;;26.10;21.60;;;;;;4956659;28;20534;-71
2022/03/10 15:09:58;;;;;;;0.90;0.70;;;25.50;22.10;;;;;;4956641;29;20467;-70
2022/03/10 15:12:26;;;;;;;0.90;0.80;;;25.60;22.20;;;;;;4956274;29;20451;-70
2022/03/10 15:14:52;;;;;;;1.00;0.80;;;25.60;22.20;;;;;;4955922;29;20946;-70
2022/03/10 15:17:19;;;;;;;0.90;0.80;;;25.70;22.30;;;;;;4955917;28;20487;-70
2022/03/10 15:19:46;;;;;;;1.00;0.90;;;25.50;22.30;;;;;;4956183;29;20451;-70
2022/03/10 15:22:13;;;;;;;0.90;0.70;;;25.40;22.20;;;;;;4956073;29;20478;-69
2022/03/10 15:24:41;;;;;;;0.93;0.80;;;25.00;21.80;;;;;;4956068;29;20450;-70
2022/03/10 15:27:07;;;;;;;0.90;0.80;;;24.90;22.10;;;;;;4955990;28;20526;-69
2022/03/10 15:29:35;;;;;;;1.20;0.83;;;24.60;22.40;;;;;;4955964;29;20498;-69
2022/03/10 15:32:03;;;;;;;1.30;0.80;;;24.40;22.70;;;;;;4955893;28;20447;-70
2022/03/10 15:34:30;;;;;;;1.00;0.90;;;24.20;23.10;;;;;;4955893;29;20462;-70
2022/03/10 15:36:58;;;;;;;1.10;1.00;;;22.90;23.50;;;;;;4955932;28;20497;-70
2022/03/10 15:39:26;;;;;;;1.10;0.90;;;21.80;24.30;;;;;;4955928;29;20490;-70
2022/03/10 15:41:55;;;;;;;1.60;1.00;;;20.90;24.80;;;;;;4955451;29;21017;-69
2022/03/10 15:44:23;;;;;;;1.00;0.90;;;19.90;25.90;;;;;;4955699;29;20450;-70
2022/03/10 15:46:49;;;;;;;1.00;0.90;;;19.10;26.70;;;;;;4955383;28;20999;-70
2022/03/10 15:49:16;;;;;;;1.20;1.00;;;18.70;27.40;;;;;;4955401;29;20942;-69
2022/03/10 15:51:43;;;;;;;1.10;1.00;;;18.40;27.80;;;;;;4955694;29;20821;-70
2022/03/10 15:54:09;;;;;;;1.00;0.90;;;18.10;28.10;;;;;;4955627;29;20455;-70
2022/03/10 15:56:36;;;;;;;1.20;0.97;;;17.40;28.50;;;;;;4955479;28;20522;-69
2022/03/10 15:59:04;;;;;;;1.40;0.90;;;16.90;29.30;;;;;;4955428;29;20514;-69
2022/03/10 16:01:31;;;;;;;1.30;0.90;;;16.40;29.40;;;;;;4955432;29;20492;-69
2022/03/10 16:03:57;;;;;;;1.07;0.97;;;16.10;30.20;;;;;;4955228;29;20946;-69
2022/03/10 16:06:24;;;;;;;1.00;0.90;;;16.00;30.60;;;;;;4955130;28;21057;-70
2022/03/10 16:08:51;;;;;;;0.90;0.80;;;15.90;30.10;;;;;;4955485;29;20513;-69
2022/03/10 16:11:17;;;;;;;1.10;0.87;;;15.60;30.60;;;;;;4955345;29;20442;-70
2022/03/10 16:13:44;;;;;;;1.00;0.90;;;15.50;30.50;;;;;;4955337;29;20451;-70
2022/03/10 16:16:14;;;;;;;1.07;0.97;;;15.20;30.40;;;;;;4987672;23;20488;-70
2022/03/10 16:18:42;;;;;;;1.00;0.90;;;15.10;30.50;;;;;;4994013;28;20457;-69
2022/03/10 16:21:09;;;;;;;3.40;1.10;;;14.90;30.50;;;;;;4993777;28;20456;-69
2022/03/10 16:23:35;;;;;;;0.90;0.80;;;14.80;30.50;;;;;;4993792;28;20531;-69
2022/03/10 16:26:02;;;;;;;1.20;1.10;;;14.70;31.20;;;;;;4990536;28;20815;-72
2022/03/10 16:28:29;;;;;;;0.90;0.80;;;14.60;31.10;;;;;;4974084;28;20450;-70
2022/03/10 16:30:57;;;;;;;1.73;1.00;;;14.60;31.50;;;;;;4974373;28;20450;-70
2022/03/10 16:33:25;;;;;;;1.10;1.00;;;14.40;31.50;;;;;;4975278;28;20867;-71
2022/03/10 16:35:51;;;;;;;0.90;0.80;;;14.30;31.80;;;;;;4974335;28;20809;-72
2022/03/10 16:38:18;;;;;;;1.00;0.90;;;14.20;32.10;;;;;;4974048;28;21004;-72
2022/03/10 16:40:46;;;;;;;1.43;0.90;;;14.10;32.60;;;;;;4974328;28;20513;-72
2022/03/10 16:43:13;;;;;;;0.90;0.80;;;14.10;32.70;;;;;;4974023;28;21075;-72
2022/03/10 16:45:39;;;;;;;1.00;0.90;;;14.00;32.80;;;;;;4977410;28;20449;-71
2022/03/10 16:48:06;;;;;;;1.17;1.00;;;14.00;33.00;;;;;;4977971;28;20940;-71
2022/03/10 16:50:34;;;;;;;1.50;1.40;;;13.80;33.20;;;;;;4978203;28;20500;-71
2022/03/10 16:53:01;;;;;;;1.27;1.17;;;13.80;33.20;;;;;;4977972;28;20446;-69
2022/03/10 16:55:28;;;;;;;0.93;0.83;;;13.80;33.40;;;;;;4978083;28;20457;-69